createdAt,value
2022-10-17T00:00:51.136Z,40.83
2022-10-17T00:03:19.460Z,39.45
2022-10-17T00:05:49.196Z,39.97
2022-10-17T00:08:18.760Z,39.80
2022-10-17T00:10:47.019Z,40.13
2022-10-17T00:13:16.410Z,40.00
2022-10-17T00:15:45.569Z,40.35
2022-10-17T00:18:13.581Z,40.63
2022-10-17T00:20:41.466Z,39.10
2022-10-17T00:23:09.373Z,39.75
2022-10-17T00:25:37.494Z,40.65
2022-10-17T00:28:05.521Z,39.65
2022-10-17T00:30:34.934Z,40.33
2022-10-17T00:33:02.851Z,40.28
2022-10-17T00:35:30.823Z,39.78
2022-10-17T00:37:58.790Z,40.50
2022-10-17T00:40:27.038Z,39.63
2022-10-17T00:42:54.976Z,40.53
2022-10-17T00:45:26.273Z,40.08
2022-10-17T00:48:00.107Z,40.70
2022-10-17T00:50:29.506Z,40.10
2022-10-17T00:53:02.373Z,40.00
2022-10-17T00:55:34.285Z,40.45
2022-10-17T00:58:05.422Z,40.80
2022-10-17T01:00:34.038Z,40.78
2022-10-17T01:03:03.581Z,39.20
2022-10-17T01:05:34.168Z,39.13
2022-10-17T01:08:03.249Z,38.97
2022-10-17T01:10:35.527Z,41.63
2022-10-17T01:13:13.135Z,40.60
2022-10-17T01:15:52.825Z,41.78
2022-10-17T01:18:33.611Z,41.83
2022-10-17T01:21:20.559Z,41.83
2022-10-17T01:24:23.946Z,40.60
2022-10-17T01:27:14.875Z,41.08
2022-10-17T01:30:04.260Z,41.92
2022-10-17T01:32:37.618Z,40.10
2022-10-17T01:35:12.152Z,40.40
2022-10-17T01:37:46.386Z,39.65
2022-10-17T01:40:21.508Z,41.20
2022-10-17T01:42:57.382Z,39.65
2022-10-17T01:45:32.427Z,40.13
2022-10-17T01:48:06.746Z,41.28
2022-10-17T01:50:37.273Z,41.55
2022-10-17T01:53:09.794Z,40.22
2022-10-17T01:55:41.405Z,40.63
2022-10-17T01:58:14.062Z,40.60
2022-10-17T02:00:43.836Z,40.42
2022-10-17T02:03:16.585Z,42.80
2022-10-17T02:05:45.735Z,40.70
2022-10-17T02:08:14.252Z,41.25
2022-10-17T02:10:50.146Z,39.17
2022-10-17T02:13:24.193Z,40.75
2022-10-17T02:16:05.226Z,40.08
2022-10-17T02:18:59.663Z,40.03
2022-10-17T02:21:37.674Z,39.83
2022-10-17T02:24:12.694Z,38.45
2022-10-17T02:26:46.417Z,38.58
2022-10-17T02:29:18.778Z,38.92
2022-10-17T02:31:50.538Z,38.75
2022-10-17T02:34:22.609Z,38.95
2022-10-17T02:36:54.854Z,39.97
2022-10-17T02:39:24.535Z,38.30
2022-10-17T02:41:55.104Z,37.80
2022-10-17T02:44:24.082Z,38.17
2022-10-17T02:46:56.955Z,38.15
2022-10-17T02:49:30.290Z,38.13
2022-10-17T02:52:06.578Z,36.47
2022-10-17T02:54:40.894Z,36.50
2022-10-17T02:57:13.176Z,36.50
2022-10-17T02:59:42.569Z,36.10
2022-10-17T03:02:10.462Z,34.75
2022-10-17T03:04:43.500Z,37.17
2022-10-17T03:07:11.517Z,36.42
2022-10-17T03:09:39.561Z,35.95
2022-10-17T03:12:07.505Z,36.58
2022-10-17T03:14:35.608Z,36.38
2022-10-17T03:17:03.539Z,36.15
2022-10-17T03:19:31.722Z,36.38
2022-10-17T03:22:01.149Z,36.00
2022-10-17T03:24:29.145Z,34.15
2022-10-17T03:26:57.005Z,36.25
2022-10-17T03:29:25.152Z,36.00
2022-10-17T03:31:53.220Z,33.83
2022-10-17T03:34:21.410Z,35.47
2022-10-17T03:36:49.329Z,35.75
2022-10-17T03:39:18.729Z,34.85
2022-10-17T03:41:46.714Z,34.65
2022-10-17T03:44:14.830Z,35.58
2022-10-17T03:46:42.808Z,34.63
2022-10-17T03:49:11.167Z,35.15
2022-10-17T03:51:39.108Z,34.90
2022-10-17T03:54:07.021Z,33.72
2022-10-17T03:56:36.469Z,34.95
2022-10-17T03:59:04.419Z,35.30
2022-10-17T04:01:32.515Z,35.08
2022-10-17T04:04:00.587Z,36.33
2022-10-17T04:06:28.537Z,36.40
2022-10-17T04:08:56.511Z,34.22
2022-10-17T04:11:27.797Z,35.65
2022-10-17T04:13:59.475Z,34.55
2022-10-17T04:16:27.814Z,34.88
2022-10-17T04:18:57.991Z,35.63
2022-10-17T04:21:27.026Z,35.42
2022-10-17T04:23:55.935Z,35.60
2022-10-17T04:26:23.949Z,34.65
2022-10-17T04:28:52.398Z,35.60
2022-10-17T04:31:21.897Z,35.03
2022-10-17T04:33:51.328Z,34.72
2022-10-17T04:36:21.154Z,35.55
2022-10-17T04:38:49.077Z,34.67
2022-10-17T04:41:18.862Z,34.33
2022-10-17T04:43:50.242Z,35.15
2022-10-17T04:46:21.524Z,33.97
2022-10-17T04:48:49.574Z,33.85
2022-10-17T04:51:24.489Z,34.38
2022-10-17T04:53:54.546Z,34.03
2022-10-17T04:56:24.351Z,33.58
2022-10-17T04:58:52.986Z,35.00
2022-10-17T05:01:24.186Z,34.25
2022-10-17T05:03:52.357Z,34.22
2022-10-17T05:06:22.793Z,34.17
2022-10-17T05:08:50.909Z,34.45
2022-10-17T05:11:21.861Z,32.85
2022-10-17T05:13:54.657Z,33.80
2022-10-17T05:16:24.919Z,33.72
2022-10-17T05:18:54.223Z,34.17
2022-10-17T05:21:23.085Z,33.90
2022-10-17T05:23:51.248Z,32.78
2022-10-17T05:26:20.292Z,32.75
2022-10-17T05:28:48.406Z,33.20
2022-10-17T05:31:16.577Z,33.10
2022-10-17T05:33:45.998Z,32.00
2022-10-17T05:36:13.983Z,32.45
2022-10-17T05:38:42.092Z,32.70
2022-10-17T05:41:11.258Z,32.10
2022-10-17T05:43:39.412Z,33.78
2022-10-17T05:46:08.030Z,32.05
2022-10-17T05:48:36.186Z,31.30
2022-10-17T05:51:08.844Z,33.75
2022-10-17T05:53:39.939Z,33.60
2022-10-17T05:56:09.626Z,33.60
2022-10-17T05:58:49.940Z,32.80
2022-10-17T06:01:19.631Z,33.50
2022-10-17T06:03:47.571Z,34.38
2022-10-17T06:06:18.305Z,33.08
2022-10-17T06:08:46.736Z,34.25
2022-10-17T06:11:15.061Z,34.70
2022-10-17T06:13:43.175Z,33.72
2022-10-17T06:16:11.199Z,34.38
2022-10-17T06:18:39.278Z,34.15
2022-10-17T06:21:09.051Z,33.83
2022-10-17T06:23:42.612Z,34.55
2022-10-17T06:26:10.646Z,33.72
2022-10-17T06:28:38.819Z,32.97
2022-10-17T06:31:08.485Z,34.45
2022-10-17T06:33:37.067Z,33.88
2022-10-17T06:36:06.163Z,33.80
2022-10-17T06:38:35.516Z,33.88
2022-10-17T06:41:11.218Z,33.85
2022-10-17T06:43:39.663Z,33.90
2022-10-17T06:46:07.996Z,35.13
2022-10-17T06:48:36.053Z,34.25
2022-10-17T06:51:05.576Z,34.00
2022-10-17T06:53:35.409Z,34.70
2022-10-17T06:56:04.589Z,34.80
2022-10-17T06:58:38.241Z,34.28
2022-10-17T07:03:38.002Z,33.55
2022-10-17T07:06:06.473Z,34.50
2022-10-17T07:08:34.765Z,32.83
2022-10-17T07:11:10.891Z,33.95
2022-10-17T07:13:40.253Z,33.95
2022-10-17T07:16:08.686Z,32.97
2022-10-17T07:18:37.202Z,32.90
2022-10-17T07:21:05.457Z,33.25
2022-10-17T07:23:36.650Z,33.40
2022-10-17T07:26:07.433Z,32.38
2022-10-17T07:28:35.923Z,31.75
2022-10-17T07:31:11.507Z,30.75
2022-10-17T07:33:39.647Z,31.65
2022-10-17T07:36:08.536Z,30.55
2022-10-17T07:38:37.537Z,30.70
2022-10-17T07:41:07.649Z,30.92
2022-10-17T07:43:36.912Z,30.63
2022-10-17T07:46:06.364Z,30.67
2022-10-17T07:48:36.331Z,30.45
2022-10-17T07:51:05.418Z,31.90
2022-10-17T07:53:33.618Z,31.38
2022-10-17T07:56:05.533Z,31.20
2022-10-17T07:58:33.739Z,29.70
2022-10-17T08:03:30.717Z,29.23
2022-10-17T08:06:01.005Z,30.58
2022-10-17T08:08:29.233Z,29.65
2022-10-17T08:11:02.744Z,28.83
2022-10-17T08:13:30.745Z,28.83
2022-10-17T08:16:01.292Z,29.13
2022-10-17T08:18:29.889Z,29.00
2022-10-17T08:21:02.611Z,29.00
2022-10-17T08:23:31.259Z,29.20
2022-10-17T08:26:01.054Z,28.40
2022-10-17T08:28:32.538Z,28.42
2022-10-17T08:31:04.620Z,27.73
2022-10-17T08:33:33.200Z,28.70
2022-10-17T08:36:02.965Z,27.10
2022-10-17T08:38:35.134Z,27.42
2022-10-17T08:41:06.153Z,28.42
2022-10-17T08:43:47.867Z,26.65
2022-10-17T08:46:16.448Z,26.75
2022-10-17T08:48:47.696Z,27.58
2022-10-17T08:51:20.675Z,27.02
2022-10-17T08:53:53.361Z,28.00
2022-10-17T08:56:30.496Z,27.23
2022-10-17T08:59:13.784Z,29.00
2022-10-17T09:01:49.550Z,27.55
2022-10-17T09:04:42.576Z,28.90
2022-10-17T09:07:18.445Z,27.70
2022-10-17T09:10:00.243Z,28.50
2022-10-17T09:12:37.121Z,26.90
2022-10-17T09:15:30.663Z,28.42
2022-10-17T09:18:03.268Z,28.65
2022-10-17T09:20:35.065Z,28.75
2022-10-17T09:23:11.430Z,27.75
2022-10-17T09:25:44.939Z,27.80
2022-10-17T09:28:18.466Z,26.92
2022-10-17T09:30:48.403Z,26.70
2022-10-17T09:33:34.287Z,26.85
2022-10-17T09:36:07.621Z,27.83
2022-10-17T09:38:41.829Z,26.00
2022-10-17T09:41:42.705Z,28.55
2022-10-17T09:44:23.025Z,27.42
2022-10-17T09:47:07.186Z,27.70
2022-10-17T09:49:37.199Z,28.10
2022-10-17T09:52:11.730Z,28.17
2022-10-17T09:54:45.823Z,27.98
2022-10-17T09:57:15.758Z,26.35
2022-10-17T09:59:46.015Z,26.13
2022-10-17T10:02:22.523Z,26.45
2022-10-17T10:05:10.815Z,25.88
2022-10-17T10:07:40.059Z,25.17
2022-10-17T10:10:27.738Z,25.75
2022-10-17T10:13:08.369Z,26.50
2022-10-17T10:15:40.988Z,26.42
2022-10-17T10:18:31.966Z,24.92
2022-10-17T10:21:09.631Z,24.73
2022-10-17T10:23:40.470Z,25.45
2022-10-17T10:26:23.680Z,25.23
2022-10-17T10:28:58.015Z,24.80
2022-10-17T10:31:35.420Z,24.08
2022-10-17T10:34:13.781Z,24.08
2022-10-17T10:36:54.540Z,24.02
2022-10-17T10:39:34.269Z,24.13
2022-10-17T10:42:07.229Z,23.08
2022-10-17T10:44:37.293Z,22.17
2022-10-17T10:47:18.518Z,21.55
2022-10-17T10:49:46.781Z,20.13
2022-10-17T10:52:32.819Z,20.95
2022-10-17T10:55:15.398Z,22.02
2022-10-17T10:57:46.827Z,21.75
2022-10-17T11:00:18.665Z,22.00
2022-10-17T11:02:54.800Z,21.38
2022-10-17T11:05:36.766Z,22.92
2022-10-17T11:08:13.260Z,22.38
2022-10-17T11:10:48.137Z,21.30
2022-10-17T11:13:23.694Z,21.10
2022-10-17T11:15:58.745Z,23.13
2022-10-17T11:18:34.575Z,22.80
2022-10-17T11:21:10.856Z,22.88
2022-10-17T11:23:44.141Z,22.90
2022-10-17T11:26:15.662Z,21.77
2022-10-17T11:28:45.216Z,22.80
2022-10-17T11:31:15.499Z,23.17
2022-10-17T11:33:48.182Z,23.55
2022-10-17T11:36:18.392Z,23.80
2022-10-17T11:38:50.164Z,24.60
2022-10-17T11:41:22.414Z,24.15
2022-10-17T11:43:56.251Z,25.40
2022-10-17T11:46:25.648Z,26.27
2022-10-17T11:49:03.667Z,25.52
2022-10-17T11:52:01.641Z,25.20
2022-10-17T11:54:35.854Z,24.92
2022-10-17T11:57:17.036Z,23.58
2022-10-17T11:59:58.843Z,24.88
2022-10-17T12:02:34.925Z,24.55
2022-10-17T12:05:13.038Z,25.15
2022-10-17T12:07:49.297Z,25.40
2022-10-17T12:10:28.261Z,24.00
2022-10-17T12:12:56.298Z,24.02
2022-10-17T12:15:33.805Z,25.17
2022-10-17T12:18:03.304Z,24.75
2022-10-17T12:20:35.559Z,25.80
2022-10-17T12:23:21.164Z,25.48
2022-10-17T12:25:51.063Z,25.73
2022-10-17T12:28:26.546Z,27.73
2022-10-17T12:31:02.156Z,27.00
2022-10-17T12:33:34.822Z,28.10
2022-10-17T12:36:42.229Z,27.63
2022-10-17T12:39:52.404Z,28.45
2022-10-17T12:42:55.857Z,29.67
2022-10-17T12:45:50.137Z,29.33
2022-10-17T12:49:06.668Z,29.45
2022-10-17T12:52:08.068Z,28.00
2022-10-17T12:54:53.537Z,29.73
2022-10-17T12:57:34.161Z,28.95
2022-10-17T13:00:06.587Z,29.08
2022-10-17T13:02:35.116Z,29.25
2022-10-17T13:05:08.723Z,31.60
2022-10-17T13:07:41.477Z,30.52
2022-10-17T13:10:23.211Z,30.67
2022-10-17T13:12:52.723Z,31.00
2022-10-17T13:15:21.930Z,29.88
2022-10-17T13:17:58.268Z,30.63
2022-10-17T13:20:31.464Z,31.25
2022-10-17T13:23:00.294Z,30.95
2022-10-17T13:25:29.870Z,31.17
2022-10-17T13:28:13.123Z,32.33
2022-10-17T13:30:46.455Z,31.98
2022-10-17T13:33:32.766Z,30.98
2022-10-17T13:36:01.695Z,31.42
2022-10-17T13:38:34.871Z,31.75
2022-10-17T13:41:34.220Z,30.30
2022-10-17T13:44:03.919Z,30.23
2022-10-17T13:46:38.861Z,29.60
2022-10-17T13:49:25.752Z,30.90
2022-10-17T13:51:57.550Z,30.48
2022-10-17T13:54:38.246Z,30.05
2022-10-17T13:57:18.252Z,29.80
2022-10-17T13:59:49.137Z,30.17
2022-10-17T14:02:19.653Z,30.63
2022-10-17T14:05:15.720Z,31.15
2022-10-17T14:08:09.540Z,30.13
2022-10-17T14:10:31.893Z,30.80
2022-10-17T14:13:04.281Z,31.38
2022-10-17T14:15:35.088Z,32.45
2022-10-17T14:18:08.013Z,31.98
2022-10-17T14:23:36.366Z,32.55
2022-10-17T14:26:09.943Z,32.00
2022-10-17T14:28:40.020Z,31.77
2022-10-17T14:31:17.666Z,31.30
2022-10-17T14:33:50.526Z,30.55
2022-10-17T14:36:20.533Z,31.15
2022-10-17T14:38:52.707Z,32.03
2022-10-17T14:44:26.169Z,31.80
2022-10-17T14:46:59.292Z,31.33
2022-10-17T14:49:36.150Z,32.60
2022-10-17T14:52:30.235Z,31.58
2022-10-17T14:55:00.097Z,32.08
2022-10-17T14:57:36.103Z,31.60
2022-10-17T15:00:06.367Z,31.42
2022-10-17T15:02:34.557Z,32.78
2022-10-17T15:05:03.090Z,32.53
2022-10-17T15:07:31.030Z,31.73
2022-10-17T15:09:59.280Z,31.33
2022-10-17T15:12:27.698Z,32.33
2022-10-17T15:14:56.112Z,32.03
2022-10-17T15:17:28.622Z,32.20
2022-10-17T15:19:57.449Z,31.17
2022-10-17T15:22:25.700Z,31.60
2022-10-17T15:24:54.710Z,30.67
2022-10-17T15:27:26.279Z,30.42
2022-10-17T15:29:54.221Z,29.90
2022-10-17T15:32:22.137Z,30.05
2022-10-17T15:34:51.537Z,30.02
2022-10-17T15:37:22.516Z,29.77
2022-10-17T15:39:53.550Z,30.38
2022-10-17T15:42:23.209Z,30.85
2022-10-17T15:44:51.172Z,30.17
2022-10-17T15:47:25.913Z,29.17
2022-10-17T15:49:56.038Z,30.10
2022-10-17T15:52:24.739Z,30.73
2022-10-17T15:54:53.053Z,29.15
2022-10-17T15:57:24.894Z,29.50
2022-10-17T15:59:55.135Z,29.95
2022-10-17T16:02:24.508Z,28.13
2022-10-17T16:04:53.613Z,29.50
2022-10-17T16:07:23.014Z,28.70
2022-10-17T16:09:51.036Z,29.27
2022-10-17T16:14:50.625Z,29.27
2022-10-17T16:17:18.872Z,28.15
2022-10-17T16:19:46.921Z,27.90
2022-10-17T16:22:25.822Z,28.10
2022-10-17T16:24:58.570Z,28.75
2022-10-17T16:27:26.981Z,29.55
2022-10-17T16:29:54.932Z,29.42
2022-10-17T16:32:23.155Z,29.23
2022-10-17T16:34:51.100Z,28.85
2022-10-17T16:37:19.091Z,29.65
2022-10-17T16:39:52.331Z,28.55
2022-10-17T16:42:20.791Z,29.27
2022-10-17T16:44:52.213Z,29.65
2022-10-17T16:47:20.657Z,29.48
2022-10-17T16:49:48.912Z,30.48
2022-10-17T16:52:16.849Z,30.63
2022-10-17T16:54:44.716Z,30.17
2022-10-17T16:57:14.274Z,29.25
2022-10-17T16:59:42.603Z,30.17
2022-10-17T17:02:12.012Z,30.48
2022-10-17T17:04:40.121Z,30.30
2022-10-17T17:07:08.319Z,29.67
2022-10-17T17:09:36.281Z,29.85
2022-10-17T17:12:04.289Z,30.30
2022-10-17T17:14:33.640Z,29.83
2022-10-17T17:17:01.455Z,29.92
2022-10-17T17:19:29.316Z,30.65
2022-10-17T17:21:57.516Z,30.73
2022-10-17T17:24:25.528Z,30.52
2022-10-17T17:26:54.940Z,29.55
2022-10-17T17:29:23.100Z,30.52
2022-10-17T17:31:52.632Z,30.35
2022-10-17T17:34:20.574Z,30.17
2022-10-17T17:36:48.438Z,30.75
2022-10-17T17:39:17.212Z,30.38
2022-10-17T17:41:46.616Z,29.48
2022-10-17T17:44:16.872Z,30.63
2022-10-17T17:46:45.387Z,28.98
2022-10-17T17:49:14.930Z,29.75
2022-10-17T17:51:46.164Z,29.65
2022-10-17T17:54:14.107Z,30.08
2022-10-17T17:56:42.439Z,30.40
2022-10-17T17:59:13.185Z,30.63
2022-10-17T18:01:41.211Z,30.75
2022-10-17T18:04:09.867Z,29.98
2022-10-17T18:06:39.793Z,29.88
2022-10-17T18:09:08.995Z,30.25
2022-10-17T18:11:37.936Z,30.63
2022-10-17T18:14:07.664Z,30.65
2022-10-17T18:16:37.707Z,30.17
2022-10-17T18:19:08.834Z,30.00
2022-10-17T18:21:38.633Z,29.52
2022-10-17T18:24:07.468Z,30.13
2022-10-17T18:26:36.020Z,29.77
2022-10-17T18:29:04.632Z,29.65
2022-10-17T18:31:35.848Z,29.95
2022-10-17T18:34:05.597Z,30.38
2022-10-17T18:36:35.306Z,30.02
2022-10-17T18:39:05.940Z,29.63
2022-10-17T18:41:35.044Z,28.60
2022-10-17T18:44:03.928Z,29.35
2022-10-17T18:46:35.831Z,29.92
2022-10-17T18:49:04.660Z,29.98
2022-10-17T18:51:32.924Z,30.15
2022-10-17T18:54:02.273Z,31.35
2022-10-17T18:56:32.584Z,30.83
2022-10-17T18:59:00.424Z,31.92
2022-10-17T19:01:29.255Z,31.13
2022-10-17T19:04:02.038Z,29.83
2022-10-17T19:06:32.115Z,30.17
2022-10-17T19:09:01.968Z,31.08
2022-10-17T19:11:33.201Z,30.80
2022-10-17T19:14:03.527Z,30.95
2022-10-17T19:16:33.817Z,31.23
2022-10-17T19:19:04.821Z,31.08
2022-10-17T19:21:32.992Z,30.85
2022-10-17T19:24:02.920Z,30.67
2022-10-17T19:26:33.536Z,29.85
2022-10-17T19:29:01.916Z,30.00
2022-10-17T19:31:32.053Z,29.98
2022-10-17T19:34:02.539Z,30.10
2022-10-17T19:36:34.017Z,31.50
2022-10-17T19:39:03.126Z,32.28
2022-10-17T19:41:33.290Z,30.08
2022-10-17T19:44:01.657Z,30.23
2022-10-17T19:46:31.051Z,29.52
2022-10-17T19:48:59.441Z,30.20
2022-10-17T19:51:29.060Z,30.48
2022-10-17T19:54:00.128Z,30.90
2022-10-17T19:56:29.459Z,30.98
2022-10-17T19:58:59.573Z,30.60
2022-10-17T20:01:30.907Z,31.15
2022-10-17T20:03:59.081Z,31.85
2022-10-17T20:06:27.344Z,30.58
2022-10-17T20:08:55.408Z,29.50
2022-10-17T20:11:25.289Z,29.83
2022-10-17T20:13:53.987Z,32.08
2022-10-17T20:16:24.677Z,32.30
2022-10-17T20:18:54.723Z,32.08
2022-10-17T20:22:16.958Z,32.13
2022-10-17T20:24:45.255Z,29.00
2022-10-17T20:27:13.503Z,31.90
2022-10-17T20:29:42.060Z,30.85
2022-10-17T20:32:11.657Z,30.42
2022-10-17T20:35:16.012Z,30.70
2022-10-17T20:41:18.329Z,30.38
2022-10-17T20:43:46.467Z,29.90
2022-10-17T20:46:29.546Z,29.70
2022-10-17T20:49:05.643Z,28.55
2022-10-17T20:51:33.674Z,29.20
2022-10-17T20:54:02.712Z,30.40
2022-10-17T20:56:32.268Z,30.23
2022-10-17T20:59:02.193Z,29.77
2022-10-17T21:01:31.920Z,28.95
2022-10-17T21:04:15.886Z,30.30
2022-10-17T21:06:51.275Z,29.33
2022-10-17T21:09:19.732Z,30.30
2022-10-17T21:11:48.419Z,30.90
2022-10-17T21:14:16.763Z,28.80
2022-10-17T21:16:44.888Z,28.55
2022-10-17T21:19:13.564Z,28.02
2022-10-17T21:21:43.076Z,28.75
2022-10-17T21:24:14.108Z,28.30
2022-10-17T21:26:43.280Z,29.30
2022-10-17T21:29:12.612Z,28.23
2022-10-17T21:31:41.864Z,30.88
2022-10-17T21:34:11.762Z,29.00
2022-10-17T21:36:40.117Z,31.65
2022-10-17T21:41:38.002Z,28.85
2022-10-17T21:44:08.337Z,27.42
2022-10-17T21:46:36.432Z,28.23
2022-10-17T21:49:04.396Z,29.02
2022-10-17T21:51:32.242Z,29.98
2022-10-17T21:54:00.264Z,28.45
2022-10-17T21:56:30.673Z,28.80
2022-10-17T21:59:00.605Z,30.00
2022-10-17T22:01:29.941Z,30.33
2022-10-17T22:04:02.235Z,30.63
2022-10-17T22:06:40.531Z,30.75
2022-10-17T22:09:11.102Z,31.58
2022-10-17T22:11:39.141Z,30.08
2022-10-17T22:14:12.765Z,29.55
2022-10-17T22:16:41.913Z,29.52
2022-10-17T22:19:12.167Z,28.73
2022-10-17T22:21:40.248Z,30.65
2022-10-17T22:24:11.712Z,30.90
2022-10-17T22:26:40.455Z,30.23
2022-10-17T22:29:10.387Z,29.63
2022-10-17T22:31:39.160Z,28.30
2022-10-17T22:34:08.093Z,32.20
2022-10-17T22:36:36.836Z,32.22
2022-10-17T22:39:05.407Z,31.98
2022-10-17T22:41:33.316Z,29.77
2022-10-17T22:44:01.309Z,27.55
2022-10-17T22:46:31.066Z,29.13
2022-10-17T22:48:59.138Z,28.38
2022-10-17T22:51:27.209Z,27.60
2022-10-17T22:53:55.284Z,28.08
2022-10-17T22:56:23.562Z,31.00
2022-10-17T22:58:51.915Z,30.95
2022-10-17T23:01:22.443Z,31.95
2022-10-17T23:03:52.694Z,31.58
2022-10-17T23:06:20.868Z,30.42
2022-10-17T23:08:49.171Z,29.40
2022-10-17T23:11:17.492Z,30.73
2022-10-17T23:13:45.411Z,29.95
2022-10-17T23:16:13.377Z,29.25
2022-10-17T23:18:41.347Z,28.40
2022-10-17T23:21:11.353Z,28.63
2022-10-17T23:23:39.513Z,29.55
2022-10-17T23:26:09.363Z,30.17
2022-10-17T23:28:37.672Z,31.67
2022-10-17T23:31:13.743Z,32.30
2022-10-17T23:33:42.158Z,28.83
2022-10-17T23:36:12.376Z,27.98
2022-10-17T23:38:40.677Z,32.45
2022-10-17T23:41:09.407Z,32.63
2022-10-17T23:43:37.463Z,37.50
2022-10-17T23:46:06.762Z,32.85
2022-10-17T23:48:34.794Z,30.52
2022-10-17T23:51:03.013Z,33.45
2022-10-17T23:53:32.343Z,30.75
2022-10-17T23:56:00.306Z,28.70
2022-10-17T23:58:28.374Z,28.63
